Time;durP1;ratioP1;P1;durP2;ratioP2;P2;SDS_P1;SDS_P2;PMS_P1;PMS_P2;Temp;Humidity;BMP_temperature;BMP_pressure;BME280_temperature;BME280_humidity;BME280_pressure;Samples;Min_cycle;Max_cycle;Signal;HPM_P1;HPM_P2
2021/06/22 00:00:13;;;;;;;15.77;3.47;;;;;;;25.79;37.96;99784.84;5049395;28;20168;-71
2021/06/22 00:02:41;;;;;;;13.35;3.10;;;;;;;25.81;37.82;99787.31;5049819;28;20041;-72
2021/06/22 00:05:09;;;;;;;17.52;3.47;;;;;;;25.82;37.86;99784.44;5049049;28;20495;-72
2021/06/22 00:07:35;;;;;;;11.55;2.70;;;;;;;25.74;38.55;99776.56;5049323;28;20041;-73
2021/06/22 00:10:05;;;;;;;18.98;3.97;;;;;;;25.64;39.00;99791.16;5049434;28;20045;-73
2021/06/22 00:12:31;;;;;;;19.35;5.10;;;;;;;25.58;39.47;99787.41;5048975;28;20091;-74
2021/06/22 00:14:58;;;;;;;11.88;3.50;;;;;;;25.64;40.10;99791.16;5049410;28;20154;-74
2021/06/22 00:17:25;;;;;;;18.15;4.15;;;;;;;25.60;40.63;99790.69;5048158;28;20515;-74
2021/06/22 00:19:52;;;;;;;20.77;5.53;;;;;;;25.64;40.63;99785.84;5048999;28;20044;-75
2021/06/22 00:22:18;;;;;;;16.00;5.03;;;;;;;25.60;40.70;99796.88;5048730;28;20103;-75
2021/06/22 00:24:45;;;;;;;16.70;4.15;;;;;;;25.51;40.97;99794.47;5049359;28;20036;-74
2021/06/22 00:27:13;;;;;;;27.88;6.22;;;;;;;25.53;40.93;99792.47;5048575;28;20045;-73
2021/06/22 00:29:43;;;;;;;20.70;4.75;;;;;;;25.35;41.27;99798.13;5047654;28;20037;-73
2021/06/22 00:32:10;;;;;;;16.75;3.70;;;;;;;25.44;40.91;99807.72;5048527;28;20040;-73
2021/06/22 00:34:37;;;;;;;16.80;5.07;;;;;;;25.38;40.80;99792.44;5048783;28;20037;-73
2021/06/22 00:37:04;;;;;;;15.18;3.60;;;;;;;25.30;41.19;99796.03;5046792;28;20084;-73
2021/06/22 00:39:32;;;;;;;24.80;3.63;;;;;;;25.27;41.34;99801.72;5049065;28;20037;-74
2021/06/22 00:41:58;;;;;;;12.02;4.03;;;;;;;25.30;41.61;99803.19;5048666;28;20079;-74
2021/06/22 00:44:26;;;;;;;25.92;6.60;;;;;;;25.24;41.76;99801.25;5046602;28;20037;-75
2021/06/22 00:46:53;;;;;;;19.23;3.72;;;;;;;25.20;42.02;99810.66;5048661;28;20048;-74
2021/06/22 00:49:20;;;;;;;27.00;4.55;;;;;;;25.21;41.71;99799.81;5047066;28;20037;-75
2021/06/22 00:51:47;;;;;;;14.32;4.10;;;;;;;25.24;42.00;99802.09;5048210;28;20525;-75
2021/06/22 00:54:16;;;;;;;14.10;4.35;;;;;;;25.22;41.87;99805.97;5047123;28;20041;-74
2021/06/22 00:56:45;;;;;;;15.88;4.70;;;;;;;25.12;42.17;99802.72;5049240;28;20041;-74
2021/06/22 00:59:13;;;;;;;22.65;5.72;;;;;;;25.15;41.94;99805.03;5047384;28;20086;-73
2021/06/22 01:01:41;;;;;;;20.08;4.00;;;;;;;25.14;42.17;99800.69;5048251;28;20135;-71
2021/06/22 01:04:08;;;;;;;15.70;3.83;;;;;;;25.02;42.36;99795.78;5048071;28;20064;-71
2021/06/22 01:06:40;;;;;;;14.63;5.00;;;;;;;24.97;42.52;99800.81;5047928;28;20068;-71
2021/06/22 01:09:12;;;;;;;21.70;4.22;;;;;;;24.95;42.59;99800.19;5064224;28;20167;-71
2021/06/22 01:11:39;;;;;;;11.27;3.60;;;;;;;24.92;42.52;99792.53;5046933;28;20500;-71
2021/06/22 01:14:08;;;;;;;13.73;4.22;;;;;;;24.88;42.80;99782.44;5046848;28;20044;-71
2021/06/22 01:16:35;;;;;;;17.88;3.97;;;;;;;24.93;42.49;99788.03;5046205;28;20060;-71
2021/06/22 01:19:06;;;;;;;14.73;4.20;;;;;;;24.89;42.46;99784.09;5046665;28;20045;-71
2021/06/22 01:21:42;;;;;;;17.38;4.35;;;;;;;24.87;42.68;99794.06;5046877;28;20451;-71
2021/06/22 01:24:19;;;;;;;18.10;4.05;;;;;;;24.82;42.61;99786.63;5050478;28;20461;-71
2021/06/22 01:26:47;;;;;;;25.77;4.55;;;;;;;24.80;42.34;99793.97;5047461;28;20132;-71
2021/06/22 01:29:15;;;;;;;26.90;6.60;;;;;;;24.79;42.38;99797.66;5049976;28;20055;-71
2021/06/22 01:31:43;;;;;;;12.88;4.10;;;;;;;24.77;42.61;99792.50;5050305;28;20067;-71
2021/06/22 01:34:11;;;;;;;10.90;3.22;;;;;;;24.70;42.30;99788.06;5053504;28;20066;-71
2021/06/22 01:36:39;;;;;;;14.45;4.10;;;;;;;24.71;42.79;99787.03;5052451;28;20040;-71
2021/06/22 01:39:12;;;;;;;26.63;5.10;;;;;;;24.63;42.81;99790.63;5052284;28;20575;-71
2021/06/22 01:41:40;;;;;;;11.40;3.80;;;;;;;24.53;42.56;99780.19;5059846;28;20496;-71
2021/06/22 01:44:09;;;;;;;14.27;5.32;;;;;;;24.53;42.54;99796.19;5052333;28;20032;-71
2021/06/22 01:46:36;;;;;;;18.27;5.18;;;;;;;24.46;42.48;99791.75;5053683;28;20032;-71
2021/06/22 01:49:05;;;;;;;10.68;3.25;;;;;;;24.52;41.93;99786.53;5063854;28;20115;-71
2021/06/22 01:51:37;;;;;;;16.98;4.05;;;;;;;24.46;42.12;99803.22;5052587;28;20080;-77
2021/06/22 01:54:04;;;;;;;8.48;3.35;;;;;;;24.33;42.22;99789.63;5051865;28;20040;-77
2021/06/22 01:56:33;;;;;;;12.48;4.40;;;;;;;24.39;42.26;99790.78;5051761;28;20124;-77
2021/06/22 01:59:04;;;;;;;16.02;3.70;;;;;;;24.40;41.93;99787.13;5065355;28;20055;-77
2021/06/22 02:01:31;;;;;;;30.00;5.22;;;;;;;24.40;41.36;99785.31;5053489;28;20098;-76
2021/06/22 02:04:05;;;;;;;10.65;3.38;;;;;;;24.46;41.20;99781.91;5051644;28;20072;-75
2021/06/22 02:06:33;;;;;;;14.20;3.15;;;;;;;24.42;41.20;99783.28;5063317;28;20053;-75
2021/06/22 02:09:23;;;;;;;14.75;3.67;;;;;;;24.45;40.88;99782.94;5017392;28;20496;-75
2021/06/22 02:11:50;;;;;;;9.43;4.13;;;;;;;24.45;40.46;99780.28;5052116;28;20040;-75
2021/06/22 02:14:17;;;;;;;13.68;2.83;;;;;;;24.45;40.49;99779.41;5051469;28;20041;-75
2021/06/22 02:16:44;;;;;;;13.40;2.95;;;;;;;24.43;40.71;99776.94;5050289;28;20045;-75
2021/06/22 02:19:10;;;;;;;15.38;4.10;;;;;;;24.42;40.42;99777.94;5046465;28;20059;-74
2021/06/22 02:21:38;;;;;;;11.02;3.28;;;;;;;24.39;40.79;99780.13;5045436;28;20079;-74
2021/06/22 02:24:08;;;;;;;7.90;2.95;;;;;;;24.41;40.50;99781.63;5044535;28;20064;-74
2021/06/22 02:26:35;;;;;;;11.70;3.17;;;;;;;24.40;40.48;99782.63;5046177;28;20582;-75
2021/06/22 02:29:03;;;;;;;18.88;4.60;;;;;;;24.38;40.37;99775.81;5045708;28;20052;-74
2021/06/22 02:31:31;;;;;;;12.10;2.83;;;;;;;24.29;40.59;99777.69;5046500;28;20106;-75
2021/06/22 02:33:59;;;;;;;11.15;2.85;;;;;;;24.31;40.55;99788.97;5062863;28;20068;-75
2021/06/22 02:36:27;;;;;;;10.27;2.45;;;;;;;24.28;40.50;99778.66;5045097;28;20095;-74
2021/06/22 02:38:55;;;;;;;12.88;3.67;;;;;;;24.14;41.54;99784.75;5046986;28;20399;-75
2021/06/22 02:41:23;;;;;;;11.07;3.00;;;;;;;23.79;42.70;99786.91;5045907;28;20041;-75
2021/06/22 02:43:59;;;;;;;12.27;3.70;;;;;;;23.60;43.23;99789.97;5047913;28;20071;-75
2021/06/22 02:46:31;;;;;;;20.50;3.63;;;;;;;23.42;43.49;99785.69;5048640;28;20120;-75
2021/06/22 02:48:58;;;;;;;27.58;5.20;;;;;;;23.50;43.66;99785.69;5046261;28;20044;-75
2021/06/22 02:51:25;;;;;;;21.20;3.83;;;;;;;23.52;43.49;99786.31;5044885;28;20083;-74
2021/06/22 02:53:52;;;;;;;15.95;5.03;;;;;;;23.50;43.66;99792.84;5046372;28;20045;-75
2021/06/22 02:56:19;;;;;;;22.50;3.92;;;;;;;23.54;43.62;99786.16;5045653;28;20418;-75
2021/06/22 02:58:54;;;;;;;19.27;4.75;;;;;;;23.64;43.58;99780.66;5044949;28;20381;-75
2021/06/22 03:01:21;;;;;;;12.23;3.10;;;;;;;23.63;43.71;99776.34;5046299;28;20067;-69
2021/06/22 03:03:49;;;;;;;9.50;3.80;;;;;;;23.65;43.53;99777.84;5044882;28;20036;-71
2021/06/22 03:06:21;;;;;;;13.15;3.20;;;;;;;23.71;43.48;99779.00;5044886;28;20496;-71
2021/06/22 03:08:57;;;;;;;20.42;3.53;;;;;;;23.64;43.58;99780.66;5049201;28;20049;-71
2021/06/22 03:11:35;;;;;;;11.82;4.25;;;;;;;23.63;43.72;99781.66;5050359;28;20060;-71
2021/06/22 03:14:04;;;;;;;20.42;3.53;;;;;;;23.68;43.44;99781.97;5048899;28;20507;-71
2021/06/22 03:16:44;;;;;;;16.90;3.15;;;;;;;23.63;43.31;99776.34;5052435;28;20045;-71
2021/06/22 03:19:12;;;;;;;19.88;3.58;;;;;;;23.68;42.70;99776.66;5050116;28;20106;-71
2021/06/22 03:21:51;;;;;;;11.68;3.00;;;;;;;23.69;42.21;99775.66;5065128;28;20040;-69
2021/06/22 03:24:20;;;;;;;14.45;3.85;;;;;;;23.67;42.22;99775.00;5048448;28;20045;-69
2021/06/22 03:26:48;;;;;;;17.85;3.30;;;;;;;23.64;41.98;99785.97;5047821;28;20033;-67
2021/06/22 03:29:15;;;;;;;14.85;3.15;;;;;;;23.70;41.78;99791.47;5049499;28;20048;-68
2021/06/22 03:32:00;;;;;;;12.32;2.75;;;;;;;23.65;41.84;99787.63;5050502;28;20041;-71
2021/06/22 03:34:30;;;;;;;10.40;2.63;;;;;;;23.62;42.04;99785.31;5050700;28;20040;-71
2021/06/22 03:36:57;;;;;;;15.98;2.88;;;;;;;23.64;41.80;99791.31;5049943;28;20049;-71
2021/06/22 03:39:24;;;;;;;14.27;3.00;;;;;;;23.64;42.08;99784.16;5065806;28;20037;-71
2021/06/22 03:41:51;;;;;;;14.70;3.45;;;;;;;23.53;42.45;99787.16;5049242;28;20198;-71
2021/06/22 03:44:18;;;;;;;13.43;3.03;;;;;;;23.51;42.41;99782.00;5048111;28;20047;-75
2021/06/22 03:47:04;;;;;;;9.38;3.10;;;;;;;23.61;42.13;99788.97;5048558;28;20048;-75
2021/06/22 03:49:32;;;;;;;8.38;3.15;;;;;;;23.51;42.10;99782.00;5049741;28;20045;-74
2021/06/22 03:51:59;;;;;;;12.60;3.47;;;;;;;23.57;41.91;99792.97;5065170;28;20037;-75
2021/06/22 03:54:30;;;;;;;11.77;2.78;;;;;;;23.62;41.53;99795.94;5064979;28;20554;-75
2021/06/22 03:56:57;;;;;;;14.95;3.03;;;;;;;23.71;40.82;99793.13;5049282;28;20051;-75
2021/06/22 03:59:34;;;;;;;13.43;3.72;;;;;;;23.82;40.88;99793.75;5049232;28;20052;-75
2021/06/22 04:02:01;;;;;;;8.77;3.13;;;;;;;23.83;40.24;99801.56;5049177;28;20037;-75
2021/06/22 04:04:27;;;;;;;9.95;2.65;;;;;;;23.81;40.33;99800.91;5047820;28;20450;-75
2021/06/22 04:07:02;;;;;;;17.05;3.75;;;;;;;23.85;40.43;99802.19;5048777;28;20053;-75
2021/06/22 04:09:33;;;;;;;11.15;2.60;;;;;;;23.89;40.24;99808.84;5049231;28;20062;-75
2021/06/22 04:12:00;;;;;;;13.40;2.97;;;;;;;23.93;40.63;99815.47;5048868;28;20037;-74
2021/06/22 04:14:27;;;;;;;17.08;3.42;;;;;;;23.95;41.08;99813.47;5049479;28;20053;-75
2021/06/22 04:16:54;;;;;;;9.70;3.08;;;;;;;23.95;41.58;99809.97;5049124;28;20033;-75
2021/06/22 04:19:21;;;;;;;15.52;2.85;;;;;;;23.99;41.28;99817.44;5048012;28;20041;-75
2021/06/22 04:21:52;;;;;;;12.95;2.92;;;;;;;24.05;41.06;99813.25;5047921;28;20456;-75
2021/06/22 04:24:32;;;;;;;10.65;3.65;;;;;;;24.15;41.10;99821.03;5049053;28;20057;-75
2021/06/22 04:26:59;;;;;;;11.25;3.25;;;;;;;24.21;41.20;99818.50;5049091;28;20041;-76
2021/06/22 04:29:25;;;;;;;14.93;3.70;;;;;;;24.26;41.02;99817.97;5049008;28;20094;-76
2021/06/22 04:31:52;;;;;;;12.65;3.10;;;;;;;24.31;40.70;99820.94;5048778;28;20045;-76
2021/06/22 04:34:19;;;;;;;13.48;2.83;;;;;;;24.35;40.47;99819.63;5048530;28;20040;-76
2021/06/22 04:36:46;;;;;;;12.23;4.22;;;;;;;24.39;40.57;99820.09;5059797;28;20049;-73
2021/06/22 04:39:13;;;;;;;11.95;3.53;;;;;;;24.45;40.72;99817.56;5054814;28;20439;-74
2021/06/22 04:41:40;;;;;;;23.38;3.65;;;;;;;24.45;42.35;99819.38;5058762;28;20041;-78
2021/06/22 04:44:07;;;;;;;20.90;3.85;;;;;;;24.12;44.39;99832.03;5056247;28;20551;-80
2021/06/22 04:46:34;;;;;;;15.65;2.65;;;;;;;24.22;43.57;99837.97;5068013;28;20043;-77
2021/06/22 04:49:01;;;;;;;21.08;4.10;;;;;;;24.31;43.37;99836.91;5067775;28;20055;-78
2021/06/22 04:51:27;;;;;;;15.13;3.08;;;;;;;24.26;43.99;99839.28;5050073;28;20049;-77
2021/06/22 04:53:54;;;;;;;20.40;3.28;;;;;;;24.41;43.42;99840.22;5069473;28;20052;-77
2021/06/22 04:56:22;;;;;;;15.05;3.25;;;;;;;24.54;43.46;99848.47;5065892;28;20107;-77
2021/06/22 04:58:56;;;;;;;19.55;3.97;;;;;;;24.75;43.90;99852.31;5071301;28;20422;-78
2021/06/22 05:01:24;;;;;;;21.05;4.25;;;;;;;24.62;44.94;99854.75;5069748;28;20041;-78
2021/06/22 05:03:51;;;;;;;16.73;3.78;;;;;;;24.40;46.13;99867.88;5072922;28;20045;-78
2021/06/22 05:06:18;;;;;;;17.50;4.20;;;;;;;24.54;46.17;99867.09;5071067;28;20052;-78
2021/06/22 05:08:45;;;;;;;15.13;3.80;;;;;;;24.53;46.70;99878.78;5063290;28;20124;-81
2021/06/22 05:11:12;;;;;;;14.52;4.78;;;;;;;24.50;44.87;99873.81;5067679;28;20049;-78
2021/06/22 05:13:40;;;;;;;12.43;3.33;;;;;;;24.82;44.59;99883.44;5065975;28;20048;-78
2021/06/22 05:16:07;;;;;;;14.48;3.63;;;;;;;24.86;45.31;99889.22;5070725;28;20041;-78
2021/06/22 05:18:34;;;;;;;15.65;5.07;;;;;;;25.44;44.70;99898.44;5069021;28;20127;-78
2021/06/22 05:21:01;;;;;;;18.48;5.68;;;;;;;25.74;43.92;99903.84;5069299;28;20044;-79
2021/06/22 05:23:28;;;;;;;16.60;5.45;;;;;;;25.91;42.19;99899.19;5047154;28;20460;-79
2021/06/22 05:25:55;;;;;;;15.57;4.28;;;;;;;25.67;43.52;99903.72;5047957;28;20037;-79
2021/06/22 05:28:21;;;;;;;18.98;4.20;;;;;;;26.06;42.87;99900.81;5047167;28;20048;-80
2021/06/22 05:30:49;;;;;;;20.88;5.63;;;;;;;25.76;42.64;99907.16;5046608;28;20045;-80
2021/06/22 05:33:16;;;;;;;21.67;4.70;;;;;;;26.01;42.37;99908.56;5047219;28;20045;-75
2021/06/22 05:35:42;;;;;;;23.17;4.45;;;;;;;26.20;41.28;99919.69;5060148;28;20094;-75
2021/06/22 05:38:09;;;;;;;21.83;8.63;;;;;;;26.38;40.95;99917.47;5046760;28;20455;-75
2021/06/22 05:40:36;;;;;;;11.15;3.75;;;;;;;27.00;40.19;99918.78;5055243;28;20051;-76
2021/06/22 05:43:03;;;;;;;18.05;4.50;;;;;;;27.25;39.50;99920.06;5063683;28;20064;-73
2021/06/22 05:45:30;;;;;;;21.00;4.10;;;;;;;28.01;38.65;99928.25;5053653;28;20099;-71
2021/06/22 05:47:57;;;;;;;20.23;5.28;;;;;;;28.47;37.55;99933.06;5053211;28;20049;-73
2021/06/22 05:50:24;;;;;;;15.00;4.07;;;;;;;28.15;38.14;99938.03;5057351;28;20102;-75
2021/06/22 05:52:51;;;;;;;22.15;4.50;;;;;;;28.75;37.44;99932.09;5052962;28;20439;-74
2021/06/22 05:55:20;;;;;;;14.13;3.58;;;;;;;29.16;35.83;99945.44;5049960;28;20072;-72
2021/06/22 05:57:53;;;;;;;20.50;4.75;;;;;;;29.63;35.35;99946.31;5052419;28;20495;-73
2021/06/22 06:00:24;;;;;;;18.13;4.22;;;;;;;29.86;35.23;99945.84;5052765;28;20140;-71
2021/06/22 06:02:51;;;;;;;16.38;3.80;;;;;;;30.18;34.96;99944.97;5059268;28;20052;-71
2021/06/22 06:05:19;;;;;;;17.48;3.65;;;;;;;30.34;33.49;99949.03;5055611;28;20057;-74
2021/06/22 06:07:46;;;;;;;15.43;3.22;;;;;;;30.84;33.03;99943.03;5050402;28;20404;-71
2021/06/22 06:10:13;;;;;;;15.27;3.15;;;;;;;31.12;32.45;99940.81;5059537;28;20090;-72
2021/06/22 06:12:42;;;;;;;10.00;3.15;;;;;;;31.52;32.21;99945.88;5063116;28;20040;-72
2021/06/22 06:15:10;;;;;;;20.50;4.90;;;;;;;31.43;31.78;99947.22;5064047;28;20041;-73
2021/06/22 06:17:37;;;;;;;19.30;3.67;;;;;;;31.89;31.38;99948.69;5063610;28;20044;-73
2021/06/22 06:20:07;;;;;;;22.15;5.60;;;;;;;32.03;30.32;99950.19;5065501;28;20090;-72
2021/06/22 06:22:36;;;;;;;14.60;4.72;;;;;;;31.69;30.60;99951.53;5052545;28;20045;-73
2021/06/22 06:25:04;;;;;;;11.02;2.72;;;;;;;32.26;30.13;99950.34;5055884;28;20086;-74
2021/06/22 06:30:11;;;;;;;25.42;5.40;;;;;;;32.50;30.10;99947.81;5059024;28;20040;-71
2021/06/22 06:32:38;;;;;;;18.60;4.30;;;;;;;32.32;29.91;99946.72;5056564;28;20033;-69
2021/06/22 06:35:05;;;;;;;21.33;5.75;;;;;;;32.55;30.25;99947.97;5060001;28;20511;-73
2021/06/22 06:37:32;;;;;;;16.42;5.18;;;;;;;32.72;29.39;99951.66;5059699;28;20499;-73
2021/06/22 06:39:59;;;;;;;14.23;3.22;;;;;;;33.14;28.35;99959.81;5059743;28;20040;-72
2021/06/22 06:42:26;;;;;;;17.13;4.43;;;;;;;32.50;29.70;99953.22;5063360;28;20036;-72
2021/06/22 06:44:52;;;;;;;13.15;3.85;;;;;;;32.59;29.72;99957.22;5052671;28;20045;-72
2021/06/22 06:47:19;;;;;;;10.57;2.83;;;;;;;32.42;29.32;99951.63;5052111;28;20041;-71
2021/06/22 06:49:46;;;;;;;10.65;2.92;;;;;;;33.03;28.43;99953.34;5052340;28;20037;-71
2021/06/22 06:52:13;;;;;;;17.40;3.72;;;;;;;33.20;28.86;99953.47;5052595;28;20048;-72
2021/06/22 06:54:40;;;;;;;17.33;3.30;;;;;;;33.81;28.02;99954.94;5051641;28;20040;-72
2021/06/22 06:57:07;;;;;;;11.75;3.45;;;;;;;34.24;27.86;99963.75;5038288;28;20041;-70
2021/06/22 06:59:34;;;;;;;12.30;2.60;;;;;;;33.77;28.50;99953.81;5045159;28;20056;-69
2021/06/22 07:02:01;;;;;;;15.32;3.13;;;;;;;34.31;27.70;99957.16;5044126;28;20045;-68
2021/06/22 07:04:28;;;;;;;22.30;4.30;;;;;;;34.07;28.69;99956.38;5043932;28;20091;-69
2021/06/22 07:06:55;;;;;;;17.83;3.00;;;;;;;34.33;28.23;99957.72;5043325;28;20037;-70
2021/06/22 07:09:22;;;;;;;13.10;2.92;;;;;;;34.72;28.21;99960.69;5049106;28;20072;-70
2021/06/22 07:11:49;;;;;;;17.73;3.65;;;;;;;34.87;27.72;99960.16;5047137;28;20033;-69
2021/06/22 07:14:15;;;;;;;13.15;3.65;;;;;;;35.45;26.67;99953.63;5047832;28;20045;-68
2021/06/22 07:16:43;;;;;;;13.05;2.50;;;;;;;34.95;26.96;99959.81;5045524;28;20099;-68
2021/06/22 07:19:10;;;;;;;17.50;4.43;;;;;;;35.10;26.34;99959.22;5049809;28;20052;-70
2021/06/22 07:21:37;;;;;;;18.13;3.47;;;;;;;34.65;26.53;99971.66;5043883;28;20041;-69
2021/06/22 07:24:04;;;;;;;17.25;3.10;;;;;;;34.78;26.26;99975.13;5043760;28;20175;-68
2021/06/22 07:26:36;;;;;;;16.20;4.72;;;;;;;34.96;26.60;99968.75;5047009;28;20045;-68
2021/06/22 07:29:04;;;;;;;14.63;3.42;;;;;;;35.41;25.73;99964.09;5051511;28;20496;-75
2021/06/22 07:31:35;;;;;;;17.27;3.42;;;;;;;35.99;25.19;99969.34;5050965;28;20083;-70
2021/06/22 07:34:02;;;;;;;15.70;2.85;;;;;;;35.76;25.35;99967.63;5051061;28;20095;-69
2021/06/22 07:36:29;;;;;;;9.40;2.53;;;;;;;36.43;23.90;99971.00;5050754;28;20037;-67
2021/06/22 07:38:56;;;;;;;10.57;3.70;;;;;;;36.80;23.54;99975.78;5050924;28;20045;-69
2021/06/22 07:41:23;;;;;;;11.43;3.30;;;;;;;36.80;23.30;99974.97;5050930;28;20458;-71
2021/06/22 07:43:50;;;;;;;21.42;3.72;;;;;;;36.92;23.33;99971.06;5051418;28;20056;-68
2021/06/22 07:46:17;;;;;;;13.02;3.75;;;;;;;36.02;24.01;99979.69;5050887;28;20041;-71
2021/06/22 07:48:44;;;;;;;26.63;4.00;;;;;;;36.78;23.44;99977.13;5050882;28;20053;-68
2021/06/22 07:51:10;;;;;;;17.13;3.08;;;;;;;37.16;23.15;99979.69;5049373;28;20056;-70
2021/06/22 07:53:37;;;;;;;11.25;4.32;;;;;;;37.06;23.49;99973.34;5049672;28;20052;-68
2021/06/22 07:56:04;;;;;;;11.13;3.05;;;;;;;37.44;23.35;99975.06;5051466;28;20481;-66
2021/06/22 07:58:31;;;;;;;16.88;3.22;;;;;;;37.74;22.83;99969.84;5052276;28;20095;-70
2021/06/22 08:00:58;;;;;;;10.73;3.20;;;;;;;38.02;22.32;99973.28;5053529;28;20071;-72
2021/06/22 08:03:27;;;;;;;14.07;2.67;;;;;;;37.63;21.59;99965.41;5054187;28;20049;-72
2021/06/22 08:05:54;;;;;;;9.63;2.63;;;;;;;37.25;22.33;99961.03;5054360;28;20055;-70
2021/06/22 08:08:22;;;;;;;16.38;4.07;;;;;;;37.09;23.47;99967.41;5054333;28;20037;-70
2021/06/22 08:10:52;;;;;;;12.00;3.30;;;;;;;37.34;22.89;99964.06;5054511;28;20045;-69
2021/06/22 08:13:20;;;;;;;12.23;4.38;;;;;;;37.22;22.52;99958.81;5054117;28;20450;-70
2021/06/22 08:15:47;;;;;;;13.98;3.13;;;;;;;37.01;22.34;99959.72;5054130;28;20045;-66
2021/06/22 08:18:14;;;;;;;14.85;2.75;;;;;;;37.38;22.40;99963.31;5053353;28;20243;-66
2021/06/22 08:20:42;;;;;;;15.27;3.17;;;;;;;37.54;22.66;99961.53;5054439;28;20099;-65
2021/06/22 08:23:09;;;;;;;10.43;2.95;;;;;;;37.81;22.35;99963.34;5054857;28;20094;-71
2021/06/22 08:25:36;;;;;;;10.73;2.63;;;;;;;37.36;22.89;99956.53;5055894;28;20067;-66
2021/06/22 08:28:03;;;;;;;15.80;2.88;;;;;;;36.78;22.52;99968.97;5063083;28;20063;-66
2021/06/22 08:30:31;;;;;;;15.25;3.90;;;;;;;37.20;22.71;99961.78;5057302;28;20098;-68
2021/06/22 08:32:58;;;;;;;21.88;3.50;;;;;;;36.13;23.26;99965.19;5060933;28;20037;-68
2021/06/22 08:35:25;;;;;;;14.00;1.98;;;;;;;36.12;23.62;99960.84;5059412;28;20496;-68
2021/06/22 08:37:53;;;;;;;10.98;2.83;;;;;;;36.18;23.46;99957.94;5053473;28;20109;-68
2021/06/22 08:40:20;;;;;;;10.57;3.13;;;;;;;36.41;23.65;99959.59;5056208;28;20047;-67
2021/06/22 08:42:47;;;;;;;9.93;2.83;;;;;;;36.45;23.01;99963.47;5055516;28;20048;-67
2021/06/22 08:45:16;;;;;;;17.80;3.15;;;;;;;36.75;23.04;99969.47;5054891;28;20049;-66
2021/06/22 08:47:44;;;;;;;14.15;2.90;;;;;;;36.36;22.83;99970.38;5055167;28;20033;-68
2021/06/22 08:50:14;;;;;;;16.23;3.00;;;;;;;36.39;22.79;99964.44;5063329;28;20044;-67
2021/06/22 08:52:42;;;;;;;14.35;3.08;;;;;;;36.45;22.97;99963.47;5055082;28;20496;-64
2021/06/22 08:55:29;;;;;;;20.35;3.13;;;;;;;36.07;23.27;99961.59;5052792;28;20044;-64
2021/06/22 08:58:05;;;;;;;9.57;3.30;;;;;;;35.94;23.46;99953.81;5052593;28;20045;-68
2021/06/22 09:00:39;;;;;;;15.57;3.13;;;;;;;35.79;23.27;99965.22;5059884;28;20043;-68
2021/06/22 09:03:24;;;;;;;16.30;3.05;;;;;;;35.13;23.64;99958.75;5051807;28;20037;-68
2021/06/22 09:05:59;;;;;;;11.27;2.53;;;;;;;35.21;23.79;99965.63;5034632;28;20095;-69
2021/06/22 09:08:32;;;;;;;13.52;2.30;;;;;;;35.10;23.74;99960.06;5052612;28;20041;-69
2021/06/22 09:11:17;;;;;;;15.48;3.60;;;;;;;34.75;23.60;99964.81;5047370;28;20033;-69
2021/06/22 09:13:59;;;;;;;12.07;2.55;;;;;;;34.69;24.04;99961.19;5053152;28;20041;-66
2021/06/22 09:16:27;;;;;;;16.98;3.90;;;;;;;34.65;24.38;99954.59;5047355;28;20045;-67
2021/06/22 09:19:02;;;;;;;11.20;3.75;;;;;;;34.57;24.88;99954.97;5047530;28;20395;-67
2021/06/22 09:21:37;;;;;;;14.82;4.00;;;;;;;34.37;24.98;99963.50;5045729;28;20067;-69
2021/06/22 09:24:14;;;;;;;11.60;2.45;;;;;;;34.15;24.96;99960.59;5047082;28;20064;-68
2021/06/22 09:26:45;;;;;;;11.38;2.92;;;;;;;34.27;25.06;99961.41;5045265;28;20044;-67
2021/06/22 09:29:15;;;;;;;11.27;2.80;;;;;;;34.23;25.22;99962.94;5047180;28;20041;-67
2021/06/22 09:31:54;;;;;;;14.20;2.83;;;;;;;34.02;25.55;99968.97;5047135;28;20041;-65
2021/06/22 09:34:25;;;;;;;13.90;2.85;;;;;;;33.77;24.79;99969.19;5047247;28;20369;-64
2021/06/22 09:36:55;;;;;;;9.95;2.35;;;;;;;33.58;24.84;99965.78;5046649;28;20033;-64
2021/06/22 09:39:24;;;;;;;22.83;3.13;;;;;;;33.63;24.45;99968.59;5046418;28;20048;-66
2021/06/22 09:41:52;;;;;;;12.52;3.28;;;;;;;33.86;24.43;99973.19;5046732;28;20045;-62
2021/06/22 09:44:23;;;;;;;9.15;1.98;;;;;;;33.88;24.39;99971.91;5049974;28;20037;-63
2021/06/22 09:46:57;;;;;;;12.63;3.20;;;;;;;33.56;24.67;99966.03;5046263;28;20559;-65
2021/06/22 09:49:32;;;;;;;12.57;1.90;;;;;;;33.27;24.74;99965.00;5054093;28;20060;-61
2021/06/22 09:52:15;;;;;;;15.63;3.08;;;;;;;33.56;25.40;99963.31;5052016;28;20120;-64
2021/06/22 09:54:41;;;;;;;17.42;2.70;;;;;;;33.66;25.45;99959.19;5052597;28;20047;-64
2021/06/22 09:57:11;;;;;;;10.98;2.97;;;;;;;33.63;25.33;99958.63;5050157;28;20123;-64
2021/06/22 10:00:06;;;;;;;13.88;3.55;;;;;;;33.53;25.89;99961.06;5052876;28;20037;-62
2021/06/22 10:02:47;;;;;;;9.52;2.58;;;;;;;33.48;26.10;99954.72;5046118;28;20492;-65
2021/06/22 10:05:16;;;;;;;23.17;4.25;;;;;;;33.30;26.03;99955.63;5047865;28;20218;-63
2021/06/22 10:07:43;;;;;;;14.80;3.97;;;;;;;33.08;25.17;99963.44;5047135;28;20049;-65
2021/06/22 10:10:10;;;;;;;16.25;3.08;;;;;;;33.04;25.50;99957.66;5044818;28;20044;-64
2021/06/22 10:12:41;;;;;;;6.47;2.13;;;;;;;33.25;26.10;99952.78;5043499;28;20107;-64
2021/06/22 10:15:08;;;;;;;9.70;2.22;;;;;;;33.44;24.76;99948.97;5043375;28;20041;-63
2021/06/22 10:17:35;;;;;;;8.02;2.58;;;;;;;33.19;23.71;99949.16;5047389;28;20037;-62
2021/06/22 10:20:06;;;;;;;7.28;2.05;;;;;;;33.40;24.28;99947.75;5049088;28;20033;-62
2021/06/22 10:22:35;;;;;;;17.25;3.97;;;;;;;33.31;24.78;99949.97;5048949;28;20045;-64
2021/06/22 10:25:04;;;;;;;8.65;2.63;;;;;;;33.17;25.70;99943.13;5045531;28;20037;-64
2021/06/22 10:27:31;;;;;;;12.10;2.47;;;;;;;32.97;25.13;99948.84;5045364;28;20052;-64
2021/06/22 10:30:02;;;;;;;11.18;2.13;;;;;;;33.06;25.35;99952.03;5044540;28;20041;-64
2021/06/22 10:32:31;;;;;;;14.90;3.50;;;;;;;32.77;25.38;99943.72;5046202;28;20049;-64
2021/06/22 10:35:07;;;;;;;9.40;1.88;;;;;;;32.82;25.55;99948.41;5045719;28;20037;-64
2021/06/22 10:37:43;;;;;;;11.43;2.63;;;;;;;32.81;25.35;99938.66;5045055;28;20044;-64
2021/06/22 10:40:23;;;;;;;9.63;2.17;;;;;;;32.98;25.29;99939.69;5044733;28;20033;-65
2021/06/22 10:42:56;;;;;;;12.90;2.25;;;;;;;33.12;24.68;99929.50;5045423;28;20044;-62
2021/06/22 10:45:54;;;;;;;5.65;1.88;;;;;;;32.84;24.73;99935.50;5045684;28;20094;-65
2021/06/22 10:48:21;;;;;;;8.65;1.90;;;;;;;32.97;24.44;99924.56;5045291;28;20048;-64
2021/06/22 10:50:47;;;;;;;6.05;1.58;;;;;;;33.06;24.47;99935.81;5046279;28;20041;-65
2021/06/22 10:53:14;;;;;;;7.45;1.85;;;;;;;32.96;25.12;99935.56;5045542;28;21018;-63
2021/06/22 10:55:48;;;;;;;13.52;2.50;;;;;;;32.94;25.02;99932.28;5045532;28;20553;-63
2021/06/22 10:58:17;;;;;;;13.57;2.20;;;;;;;32.96;24.64;99935.56;5043369;28;20099;-64
2021/06/22 11:00:48;;;;;;;15.05;2.47;;;;;;;32.91;24.73;99927.34;5043488;28;20044;-63
2021/06/22 11:03:21;;;;;;;5.00;2.65;;;;;;;32.96;24.42;99924.75;5045786;28;20045;-64
2021/06/22 11:05:49;;;;;;;6.25;2.45;;;;;;;32.93;24.45;99919.84;5045071;28;20767;-64
2021/06/22 11:08:16;;;;;;;9.05;2.17;;;;;;;33.02;24.92;99918.44;5045987;28;20045;-64
2021/06/22 11:10:55;;;;;;;7.28;2.83;;;;;;;32.96;24.21;99914.78;5045937;28;20443;-64
2021/06/22 11:13:44;;;;;;;11.80;2.78;;;;;;;33.02;24.67;99913.03;5044739;28;20045;-64
2021/06/22 11:16:14;;;;;;;8.65;2.28;;;;;;;32.84;24.59;99914.72;5046257;28;20045;-64
2021/06/22 11:19:03;;;;;;;8.40;2.15;;;;;;;32.73;24.29;99912.00;5045707;28;20095;-65
2021/06/22 11:21:36;;;;;;;5.28;1.80;;;;;;;32.75;23.93;99913.41;5033914;28;20106;-64
2021/06/22 11:24:12;;;;;;;5.80;2.00;;;;;;;32.83;24.22;99902.28;5046528;28;20045;-65
2021/06/22 11:26:53;;;;;;;14.23;4.90;;;;;;;32.86;24.15;99915.31;5046105;28;20041;-65
2021/06/22 11:29:26;;;;;;;5.05;2.30;;;;;;;32.72;25.08;99905.78;5046070;28;20044;-63
2021/06/22 11:31:54;;;;;;;10.77;1.70;;;;;;;32.55;24.28;99918.28;5050088;28;20044;-64
2021/06/22 11:34:20;;;;;;;4.65;1.80;;;;;;;32.55;24.43;99907.50;5048950;28;20325;-61
2021/06/22 11:36:52;;;;;;;13.27;2.05;;;;;;;32.56;23.74;99909.94;5049603;28;20480;-65
2021/06/22 11:39:29;;;;;;;9.60;2.00;;;;;;;32.53;23.87;99906.88;5050273;28;20089;-64